Time;durP1;ratioP1;P1;durP2;ratioP2;P2;SDS_P1;SDS_P2;PMS_P1;PMS_P2;Temp;Humidity;BMP_temperature;BMP_pressure;BME280_temperature;BME280_humidity;BME280_pressure;Samples;Min_cycle;Max_cycle;Signal;HPM_P1;HPM_P2
2024/01/18 00:02:06;;;;;;;19.00;11.80;;;;;;;-4.95;58.59;99846.11;105670;1257;65142;-68
2024/01/18 00:04:33;;;;;;;21.30;11.80;;;;;;;-4.93;58.73;99846.42;105720;1251;60504;-68
2024/01/18 00:07:00;;;;;;;19.50;11.80;;;;;;;-4.90;58.77;99843.11;105897;1253;63996;-68
2024/01/18 00:09:27;;;;;;;20.30;11.70;;;;;;;-4.88;58.93;99835.66;105932;1251;60552;-68
2024/01/18 00:11:54;;;;;;;21.30;12.20;;;;;;;-4.86;59.10;99833.04;105940;1251;60454;-67
2024/01/18 00:14:21;;;;;;;19.80;11.70;;;;;;;-4.84;59.21;99831.59;105938;1251;65001;-69
2024/01/18 00:16:48;;;;;;;18.70;11.80;;;;;;;-4.81;59.37;99828.29;105938;1251;60464;-66
2024/01/18 00:19:15;;;;;;;20.60;11.80;;;;;;;-4.79;59.53;99811.88;105812;1251;64007;-67
2024/01/18 00:21:42;;;;;;;18.90;11.30;;;;;;;-4.74;59.71;99798.36;105592;1252;60434;-68
2024/01/18 00:24:10;;;;;;;22.10;12.70;;;;;;;-4.70;59.86;99785.20;105761;1251;60463;-68
2024/01/18 00:26:37;;;;;;;21.00;13.00;;;;;;;-4.66;60.06;99777.35;105639;1256;65128;-68
2024/01/18 00:29:04;;;;;;;20.30;13.10;;;;;;;-4.62;60.24;99769.52;105705;1251;60478;-68
2024/01/18 00:31:31;;;;;;;19.90;11.40;;;;;;;-4.56;60.46;99762.52;105750;1251;64000;-67
2024/01/18 00:33:58;;;;;;;21.90;13.10;;;;;;;-4.51;60.58;99752.23;105615;1253;60339;-67
2024/01/18 00:36:27;;;;;;;21.50;12.60;;;;;;;-4.47;60.77;99741.95;105742;1253;60444;-68
2024/01/18 00:38:54;;;;;;;22.20;12.90;;;;;;;-4.41;60.90;99737.65;105659;1253;63876;-67
2024/01/18 00:41:21;;;;;;;27.30;13.80;;;;;;;-4.35;61.11;99727.36;105881;1252;60479;-70
2024/01/18 00:43:48;;;;;;;23.80;14.90;;;;;;;-4.30;61.25;99718.95;105783;1253;63877;-67
2024/01/18 00:46:19;;;;;;;23.60;14.60;;;;;;;-4.25;61.37;99700.77;105619;1253;60530;-68
2024/01/18 00:48:46;;;;;;;27.10;14.30;;;;;;;-4.21;61.62;99687.43;105642;1253;60428;-68
2024/01/18 00:51:13;;;;;;;21.20;13.50;;;;;;;-4.17;61.89;99688.29;105793;1252;65055;-67
2024/01/18 00:53:41;;;;;;;27.40;14.90;;;;;;;-4.13;62.02;99681.83;105700;1253;60456;-68
2024/01/18 00:56:11;;;;;;;22.80;13.90;;;;;;;-4.09;62.26;99673.98;105729;1257;63891;-68
2024/01/18 00:58:39;;;;;;;27.70;13.60;;;;;;;-4.05;62.35;99671.80;105782;1256;60445;-68
2024/01/18 01:01:06;;;;;;;24.60;13.60;;;;;;;-4.02;62.54;99665.00;105924;1253;60457;-68
2024/01/18 01:03:33;;;;;;;22.70;13.70;;;;;;;-3.97;62.74;99657.78;105655;1251;65003;-68
2024/01/18 01:06:00;;;;;;;21.40;13.00;;;;;;;-3.90;62.78;99645.52;106102;1251;60478;-66
2024/01/18 01:08:29;;;;;;;22.90;14.10;;;;;;;-3.84;62.95;99633.81;105764;1251;64093;-68
2024/01/18 01:10:56;;;;;;;28.10;14.60;;;;;;;-3.79;63.06;99628.48;105957;1251;60348;-68
2024/01/18 01:13:23;;;;;;;24.70;14.50;;;;;;;-3.74;63.33;99619.71;105736;1251;60544;-68
2024/01/18 01:15:49;;;;;;;22.20;13.90;;;;;;;-3.68;63.54;99611.08;105847;1256;65231;-68
2024/01/18 01:18:17;;;;;;;23.60;14.40;;;;;;;-3.62;63.81;99601.93;105682;1256;60601;-69
2024/01/18 01:20:44;;;;;;;24.30;14.60;;;;;;;-3.57;63.91;99593.13;105707;1253;63820;-69
2024/01/18 01:23:10;;;;;;;23.90;14.40;;;;;;;-3.51;64.04;99584.84;105650;1256;60402;-68
2024/01/18 01:25:37;;;;;;;25.20;14.40;;;;;;;-3.45;64.20;99579.14;105751;1253;60486;-68
2024/01/18 01:28:05;;;;;;;24.90;13.50;;;;;;;-3.38;64.51;99572.20;105795;1255;65284;-69
2024/01/18 01:30:32;;;;;;;23.20;14.10;;;;;;;-3.32;64.70;99561.30;105865;1251;60521;-69
2024/01/18 01:32:59;;;;;;;22.60;14.40;;;;;;;-3.27;64.86;99548.02;105592;1253;64051;-68
2024/01/18 01:35:27;;;;;;;23.30;14.00;;;;;;;-3.21;65.05;99537.64;105840;1253;60461;-68
2024/01/18 01:37:53;;;;;;;21.00;13.00;;;;;;;-3.15;65.29;99530.04;105809;1253;60428;-68
2024/01/18 01:40:20;;;;;;;23.80;15.00;;;;;;;-3.10;65.53;99520.02;105510;1255;65071;-67
2024/01/18 01:42:47;;;;;;;25.30;15.60;;;;;;;-3.06;65.74;99515.59;105844;1251;60443;-67
2024/01/18 01:45:14;;;;;;;25.90;16.20;;;;;;;-3.02;65.88;99512.82;105844;1251;63798;-68
2024/01/18 01:47:41;;;;;;;25.40;15.70;;;;;;;-2.96;66.04;99511.22;105760;1252;60355;-67
2024/01/18 01:50:09;;;;;;;26.00;15.30;;;;;;;-2.90;66.19;99507.73;105839;1252;60419;-67
2024/01/18 01:52:36;;;;;;;26.60;16.20;;;;;;;-2.83;66.36;99498.84;105950;1253;63852;-67
2024/01/18 01:55:06;;;;;;;24.80;15.00;;;;;;;-2.78;66.56;99492.80;105717;1253;60505;-72
2024/01/18 01:57:36;;;;;;;23.80;14.90;;;;;;;-2.71;66.77;99481.47;105713;1253;62405;-68
2024/01/18 02:00:03;;;;;;;29.00;15.70;;;;;;;-2.64;66.83;99474.32;105756;1253;60354;-68
2024/01/18 02:02:36;;;;;;;23.90;15.20;;;;;;;-2.58;67.03;99468.38;105726;1252;60419;-68
2024/01/18 02:05:03;;;;;;;25.60;15.90;;;;;;;-2.52;67.04;99465.38;105585;1256;65308;-69
2024/01/18 02:07:30;;;;;;;27.90;15.00;;;;;;;-2.47;67.10;99461.72;105605;1251;60470;-69
2024/01/18 02:09:57;;;;;;;23.80;15.50;;;;;;;-2.42;67.32;99448.94;105716;1251;63921;-66
2024/01/18 02:12:25;;;;;;;22.40;13.50;;;;;;;-2.37;67.55;99436.13;106036;1251;60367;-67
2024/01/18 02:14:52;;;;;;;22.70;13.70;;;;;;;-2.31;67.62;99428.15;105608;1251;60453;-68
2024/01/18 02:17:19;;;;;;;24.00;14.70;;;;;;;-2.25;67.79;99426.16;105645;1251;65240;-68
2024/01/18 02:19:47;;;;;;;23.50;14.50;;;;;;;-2.20;67.86;99415.62;105367;1251;60595;-68
2024/01/18 02:22:14;;;;;;;19.90;13.50;;;;;;;-2.15;67.96;99406.25;105756;1256;64026;-68
2024/01/18 02:24:42;;;;;;;17.90;12.90;;;;;;;-2.10;68.07;99396.21;105628;1251;60498;-68
2024/01/18 02:27:09;;;;;;;20.20;13.10;;;;;;;-2.05;68.18;99395.45;105929;1251;60545;-68
2024/01/18 02:29:36;;;;;;;19.70;12.30;;;;;;;-1.99;68.32;99389.88;105786;1253;65189;-67
2024/01/18 02:32:04;;;;;;;16.70;12.00;;;;;;;-1.93;68.44;99380.98;105941;1253;60407;-69
2024/01/18 02:34:31;;;;;;;16.50;11.50;;;;;;;-1.87;68.60;99378.11;105800;1251;64095;-67
2024/01/18 02:36:58;;;;;;;15.20;11.10;;;;;;;-1.81;68.71;99369.39;105809;1252;60557;-68
2024/01/18 02:39:25;;;;;;;14.80;10.20;;;;;;;-1.73;68.84;99358.17;105921;1251;60556;-68
2024/01/18 02:41:52;;;;;;;15.20;10.50;;;;;;;-1.65;68.91;99347.80;105711;1256;65016;-69
2024/01/18 02:44:19;;;;;;;13.50;9.50;;;;;;;-1.58;69.04;99337.80;105963;1251;60441;-68
2024/01/18 02:46:47;;;;;;;13.90;10.10;;;;;;;-1.51;69.22;99342.11;105947;1251;64118;-68
2024/01/18 02:49:13;;;;;;;13.70;10.20;;;;;;;-1.43;69.23;99335.05;105855;1251;60453;-69
2024/01/18 02:51:40;;;;;;;14.50;10.30;;;;;;;-1.36;69.34;99326.39;105640;1253;60432;-69
2024/01/18 02:54:07;;;;;;;14.50;10.40;;;;;;;-1.29;69.39;99317.61;105884;1257;65213;-68
2024/01/18 02:56:34;;;;;;;15.40;10.80;;;;;;;-1.25;69.52;99309.26;105959;1251;60454;-68
2024/01/18 02:59:01;;;;;;;12.40;9.30;;;;;;;-1.18;69.62;99308.27;105857;1251;63881;-68
2024/01/18 03:01:29;;;;;;;13.90;10.00;;;;;;;-1.12;69.58;99300.54;105777;1251;60439;-68
2024/01/18 03:03:55;;;;;;;15.10;10.80;;;;;;;-1.06;69.75;99294.05;105918;1251;60543;-67
2024/01/18 03:06:23;;;;;;;12.40;9.70;;;;;;;-1.00;69.85;99291.48;105744;1251;64990;-67
2024/01/18 03:08:50;;;;;;;13.00;10.00;;;;;;;-0.94;69.99;99296.02;105741;1251;60456;-67
2024/01/18 03:11:17;;;;;;;13.60;9.90;;;;;;;-0.89;70.03;99295.06;105717;1251;63860;-68
2024/01/18 03:13:44;;;;;;;12.40;9.60;;;;;;;-0.83;70.11;99292.54;105943;1251;60439;-68
2024/01/18 03:16:12;;;;;;;12.50;9.90;;;;;;;-0.77;70.11;99282.21;105806;1251;60518;-67
2024/01/18 03:18:39;;;;;;;13.80;10.50;;;;;;;-0.72;70.14;99279.37;105932;1256;65000;-68
2024/01/18 03:21:06;;;;;;;12.50;9.40;;;;;;;-0.67;70.18;99274.61;105939;1252;60492;-67
2024/01/18 03:23:33;;;;;;;14.50;10.30;;;;;;;-0.62;70.28;99268.48;105888;1253;64000;-68
2024/01/18 03:26:00;;;;;;;12.10;9.30;;;;;;;-0.57;70.30;99264.25;105830;1253;60309;-68
2024/01/18 03:28:27;;;;;;;13.80;10.00;;;;;;;-0.52;70.35;99257.58;105892;1253;60483;-69
2024/01/18 03:30:54;;;;;;;12.10;9.30;;;;;;;-0.47;70.34;99249.40;105895;1256;65262;-67
2024/01/18 03:33:21;;;;;;;13.40;9.70;;;;;;;-0.43;70.41;99247.27;105888;1253;60562;-68
2024/01/18 03:35:48;;;;;;;13.80;9.40;;;;;;;-0.37;70.48;99245.76;105878;1253;64031;-69
2024/01/18 03:38:15;;;;;;;12.40;9.90;;;;;;;-0.33;70.50;99242.03;105906;1253;60369;-67
2024/01/18 03:40:42;;;;;;;14.80;10.90;;;;;;;-0.28;70.63;99233.33;105705;1251;60544;-68
2024/01/18 03:43:09;;;;;;;12.80;9.70;;;;;;;-0.23;70.66;99221.30;105882;1254;65223;-67
2024/01/18 03:45:36;;;;;;;17.00;11.30;;;;;;;-0.18;70.68;99210.16;105745;1251;60524;-67
2024/01/18 03:48:04;;;;;;;14.90;10.50;;;;;;;-0.13;70.75;99202.03;105788;1253;63837;-67
2024/01/18 03:50:31;;;;;;;18.60;11.70;;;;;;;-0.06;70.89;99194.05;105764;1251;229992;-68
2024/01/18 03:52:58;;;;;;;15.90;11.50;;;;;;;-0.00;70.87;99186.31;105936;1251;61099;-69
2024/01/18 03:55:25;;;;;;;17.40;11.70;;;;;;;0.06;70.99;99178.04;105856;1256;65283;-68
2024/01/18 03:57:51;;;;;;;17.50;11.60;;;;;;;0.11;70.97;99171.84;105871;1253;60545;-68
2024/01/18 04:00:19;;;;;;;15.80;10.90;;;;;;;0.16;71.14;99171.89;105744;1253;63982;-68
2024/01/18 04:02:47;;;;;;;16.10;11.60;;;;;;;0.22;71.23;99168.08;105725;1253;60352;-68
2024/01/18 04:05:14;;;;;;;18.70;12.70;;;;;;;0.28;71.23;99166.92;105756;1253;60517;-68
2024/01/18 04:07:40;;;;;;;17.80;12.50;;;;;;;0.33;71.23;99162.28;105863;1253;64984;-68
2024/01/18 04:10:08;;;;;;;16.70;12.10;;;;;;;0.38;71.37;99149.86;105902;1251;61191;-67
2024/01/18 04:12:36;;;;;;;18.60;13.00;;;;;;;0.44;71.53;99146.41;105622;1253;64122;-68
2024/01/18 04:15:04;;;;;;;20.50;13.70;;;;;;;0.50;71.65;99142.75;105630;1251;60392;-68
2024/01/18 04:17:31;;;;;;;15.90;11.30;;;;;;;0.59;71.72;99138.64;105732;1256;60348;-69
2024/01/18 04:19:58;;;;;;;20.30;12.60;;;;;;;0.67;71.89;99127.06;105656;1256;65282;-69
2024/01/18 04:22:25;;;;;;;20.40;13.70;;;;;;;0.79;72.15;99119.04;105713;1252;60606;-68
2024/01/18 04:24:53;;;;;;;27.30;17.20;;;;;;;0.96;72.56;99110.94;105749;1251;63925;-68
2024/01/18 04:27:20;;;;;;;21.20;14.80;;;;;;;1.18;73.05;99106.85;105808;1253;60313;-67
2024/01/18 04:29:47;;;;;;;10.00;7.30;;;;;;;1.51;74.04;99101.16;105786;1253;60540;-68
2024/01/18 04:32:14;;;;;;;10.90;8.00;;;;;;;1.95;75.02;99090.16;105736;1257;66189;-69
2024/01/18 04:34:42;;;;;;;10.00;7.60;;;;;;;2.38;75.60;99086.50;105864;1256;60496;-68
2024/01/18 04:37:11;;;;;;;11.50;8.20;;;;;;;2.71;75.93;99087.89;105699;1251;64020;-68
2024/01/18 04:39:38;;;;;;;12.00;8.70;;;;;;;3.00;76.32;99089.41;105847;1256;60417;-68
2024/01/18 04:42:08;;;;;;;13.00;9.20;;;;;;;3.23;76.34;99080.30;105830;1256;60440;-68
2024/01/18 04:44:35;;;;;;;11.90;8.60;;;;;;;3.38;76.13;99079.64;105644;1251;63821;-68
2024/01/18 04:47:02;;;;;;;10.60;6.90;;;;;;;3.52;76.30;99076.90;105814;1251;60441;-67
2024/01/18 04:49:29;;;;;;;13.30;9.60;;;;;;;3.65;76.33;99065.99;105698;1253;63998;-68
2024/01/18 04:51:56;;;;;;;11.60;9.00;;;;;;;3.78;76.24;99052.77;105922;1253;60477;-70
2024/01/18 04:54:23;;;;;;;9.10;6.70;;;;;;;3.88;76.18;99038.42;105850;1252;60424;-68
2024/01/18 04:56:51;;;;;;;9.10;6.90;;;;;;;3.95;76.07;99032.13;105770;1251;65067;-69
2024/01/18 04:59:18;;;;;;;10.90;7.40;;;;;;;4.01;75.95;99036.41;105566;1253;60588;-68
2024/01/18 05:01:47;;;;;;;11.90;7.50;;;;;;;4.05;75.87;99035.10;105903;1255;64030;-68
2024/01/18 05:04:14;;;;;;;10.90;8.10;;;;;;;4.08;75.71;99027.73;105870;1256;60384;-68
2024/01/18 05:06:41;;;;;;;13.00;8.70;;;;;;;4.13;75.74;99029.63;105908;1251;60537;-67
2024/01/18 05:09:09;;;;;;;12.60;8.20;;;;;;;4.17;75.62;99024.65;105941;1256;65274;-68
2024/01/18 05:11:37;;;;;;;12.20;8.10;;;;;;;4.20;75.51;99021.25;105886;1251;60410;-69
2024/01/18 05:14:04;;;;;;;17.40;9.70;;;;;;;4.20;75.40;99027.88;105677;1251;64031;-69
2024/01/18 05:16:33;;;;;;;13.30;7.70;;;;;;;4.21;75.51;99023.27;105769;1255;60429;-69
2024/01/18 05:19:00;;;;;;;14.60;9.60;;;;;;;4.24;75.59;99017.63;105789;1251;60495;-69
2024/01/18 05:21:27;;;;;;;10.90;7.60;;;;;;;4.26;75.55;99000.39;105706;1256;65185;-69
2024/01/18 05:23:54;;;;;;;11.50;7.00;;;;;;;4.30;75.58;98997.16;105641;1253;60538;-69
2024/01/18 05:26:21;;;;;;;11.00;6.40;;;;;;;4.32;75.38;98992.11;105684;1255;64144;-69
2024/01/18 05:28:48;;;;;;;10.90;6.20;;;;;;;4.29;75.55;98989.20;105706;1252;60316;-69
2024/01/18 05:31:15;;;;;;;11.50;6.10;;;;;;;4.31;75.71;98980.86;105729;1253;60440;-68
2024/01/18 05:33:41;;;;;;;11.50;6.70;;;;;;;4.34;75.62;98982.73;105726;1256;65268;-70
2024/01/18 05:36:09;;;;;;;11.00;6.80;;;;;;;4.35;75.53;98978.49;105787;1256;60457;-69
2024/01/18 05:38:36;;;;;;;15.10;7.20;;;;;;;4.34;75.51;98972.09;105643;1253;63696;-69
2024/01/18 05:41:08;;;;;;;12.30;6.70;;;;;;;4.34;75.57;98981.17;105901;1253;60541;-69
2024/01/18 05:43:35;;;;;;;10.60;6.40;;;;;;;4.35;75.55;98986.35;105747;1253;60512;-68
2024/01/18 05:46:02;;;;;;;13.10;6.90;;;;;;;4.35;75.44;98982.70;105862;1253;65009;-68
2024/01/18 05:48:30;;;;;;;13.50;6.90;;;;;;;4.33;75.69;98993.29;105884;1256;60417;-68
2024/01/18 05:50:57;;;;;;;9.60;6.90;;;;;;;4.34;75.86;98992.15;105913;1251;64014;-68
2024/01/18 05:53:23;;;;;;;10.90;7.20;;;;;;;4.35;76.00;98995.03;105742;1252;60368;-68
2024/01/18 05:55:50;;;;;;;13.80;7.00;;;;;;;4.37;75.84;98993.52;105894;1253;60479;-69
2024/01/18 05:58:17;;;;;;;12.80;8.20;;;;;;;4.36;75.81;98985.37;105743;1258;65198;-69
2024/01/18 06:00:45;;;;;;;15.80;7.70;;;;;;;4.35;75.77;98977.27;105617;1257;60461;-69
2024/01/18 06:03:12;;;;;;;13.60;7.40;;;;;;;4.34;75.99;98970.02;105870;1253;63881;-69
2024/01/18 06:05:39;;;;;;;13.00;8.00;;;;;;;4.35;76.07;98959.67;105748;1253;60428;-69
2024/01/18 06:08:06;;;;;;;14.60;7.80;;;;;;;4.35;76.11;98961.27;105844;1253;60540;-70
2024/01/18 06:10:33;;;;;;;14.90;7.90;;;;;;;4.34;76.10;98970.66;105837;1253;65159;-68
2024/01/18 06:13:00;;;;;;;14.60;8.10;;;;;;;4.35;76.11;98972.23;105830;1256;60426;-69
2024/01/18 06:15:27;;;;;;;14.10;8.20;;;;;;;4.33;76.20;98964.83;105579;1253;64063;-69
2024/01/18 06:17:56;;;;;;;12.80;7.70;;;;;;;4.33;76.39;98953.02;105775;1253;60423;-69
2024/01/18 06:20:23;;;;;;;14.90;8.00;;;;;;;4.34;76.55;98952.42;106116;1252;60450;-70
2024/01/18 06:22:51;;;;;;;17.20;8.10;;;;;;;4.35;76.53;98970.84;105880;1256;65270;-69
2024/01/18 06:25:18;;;;;;;16.00;8.10;;;;;;;4.34;76.56;98981.02;105891;1253;60545;-70
2024/01/18 06:27:45;;;;;;;15.50;8.30;;;;;;;4.31;76.57;98980.30;105666;1253;63898;-68
2024/01/18 06:30:13;;;;;;;14.60;8.30;;;;;;;4.29;76.69;98976.64;105797;1253;60497;-71
2024/01/18 06:32:40;;;;;;;16.70;8.90;;;;;;;4.30;76.81;98975.34;105804;1257;60514;-68
2024/01/18 06:35:07;;;;;;;15.60;8.30;;;;;;;4.28;76.69;98982.45;105635;1258;65292;-69
2024/01/18 06:37:34;;;;;;;15.80;8.00;;;;;;;4.26;76.75;98984.55;105843;1252;61008;-70
2024/01/18 06:40:01;;;;;;;17.60;9.00;;;;;;;4.24;76.94;98987.28;105864;1251;64121;-69
2024/01/18 06:42:28;;;;;;;15.90;9.10;;;;;;;4.25;76.94;98982.19;105888;1253;60442;-69
2024/01/18 06:44:55;;;;;;;14.70;8.60;;;;;;;4.22;77.09;98984.30;105833;1256;60432;-69
2024/01/18 06:47:22;;;;;;;14.10;8.70;;;;;;;4.22;77.10;98982.04;105890;1256;65234;-68
2024/01/18 06:49:49;;;;;;;14.80;7.90;;;;;;;4.21;77.21;98982.48;105936;1253;60417;-69
2024/01/18 06:52:16;;;;;;;16.50;8.80;;;;;;;4.21;77.41;98969.77;105752;1253;65639;-69
2024/01/18 06:54:44;;;;;;;15.60;8.40;;;;;;;4.20;77.54;98957.96;105806;1256;60427;-71
2024/01/18 06:57:11;;;;;;;12.50;8.60;;;;;;;4.19;77.66;98947.60;105880;1253;60415;-68
2024/01/18 06:59:46;;;;;;;16.80;8.90;;;;;;;4.21;77.63;98959.31;105894;1253;67127;-68
2024/01/18 07:02:13;;;;;;;13.60;8.60;;;;;;;4.21;77.63;98955.12;105727;1253;60541;-68
2024/01/18 07:04:40;;;;;;;16.50;7.10;;;;;;;4.20;77.70;98957.80;105901;1253;65903;-68
2024/01/18 07:07:07;;;;;;;13.80;8.70;;;;;;;4.20;77.84;98956.27;105922;1256;61522;-68
2024/01/18 07:09:34;;;;;;;17.40;8.80;;;;;;;4.21;77.76;98952.02;105870;1253;60483;-67
2024/01/18 07:12:02;;;;;;;17.50;10.20;;;;;;;4.18;77.93;98952.05;105915;1256;66996;-69
2024/01/18 07:14:30;;;;;;;16.40;9.20;;;;;;;4.20;78.03;98943.75;105929;1253;60465;-69
2024/01/18 07:17:01;;;;;;;17.30;9.00;;;;;;;4.20;78.04;98939.52;105818;1253;64030;-68
2024/01/18 07:19:29;;;;;;;16.70;8.80;;;;;;;4.20;77.97;98926.09;105953;1251;60976;-67
2024/01/18 07:21:55;;;;;;;13.30;8.40;;;;;;;4.18;77.98;98920.85;105779;1254;60450;-69
2024/01/18 07:24:22;;;;;;;15.00;8.50;;;;;;;4.20;78.15;98918.11;105832;1253;65252;-69
2024/01/18 07:26:49;;;;;;;14.10;9.00;;;;;;;4.22;78.17;98918.16;105981;1253;60447;-69
2024/01/18 07:29:16;;;;;;;15.50;9.40;;;;;;;4.21;78.10;98909.46;105953;1254;63970;-67
2024/01/18 07:31:43;;;;;;;16.70;8.90;;;;;;;4.22;78.12;98909.41;105848;1258;60916;-69
2024/01/18 07:34:15;;;;;;;16.80;7.90;;;;;;;4.21;78.13;98908.44;105850;1251;60454;-68
2024/01/18 07:36:45;;;;;;;13.80;7.90;;;;;;;4.21;78.36;98902.15;105941;1251;63831;-68
2024/01/18 07:39:12;;;;;;;14.30;9.30;;;;;;;4.24;78.34;98890.41;105934;1256;60457;-69
2024/01/18 07:41:39;;;;;;;15.80;9.30;;;;;;;4.25;78.20;98881.83;105932;1253;63736;-69
2024/01/18 07:44:06;;;;;;;14.70;8.50;;;;;;;4.25;78.31;98880.98;105906;1253;60316;-69
2024/01/18 07:46:33;;;;;;;15.80;9.60;;;;;;;4.27;78.30;98874.38;105966;1251;60454;-69
2024/01/18 07:49:01;;;;;;;15.00;9.80;;;;;;;4.28;78.38;98871.83;105938;1252;66909;-70
2024/01/18 07:51:29;;;;;;;19.60;10.50;;;;;;;4.30;78.40;98867.30;105879;1256;60552;-70
2024/01/18 07:53:56;;;;;;;17.20;9.60;;;;;;;4.30;78.33;98866.45;105945;1252;64117;-68
2024/01/18 07:56:23;;;;;;;15.80;8.80;;;;;;;4.30;78.38;98873.79;105895;1253;60369;-69
2024/01/18 07:58:50;;;;;;;16.50;9.30;;;;;;;4.31;78.43;98871.08;105888;1253;60537;-70
2024/01/18 08:01:18;;;;;;;19.10;10.20;;;;;;;4.32;78.53;98880.20;105635;1257;65067;-67
2024/01/18 08:03:45;;;;;;;13.80;8.60;;;;;;;4.34;78.53;98882.50;105636;1255;60450;-69
2024/01/18 08:06:12;;;;;;;16.70;9.50;;;;;;;4.38;78.57;98872.84;105785;1254;64018;-68
2024/01/18 08:08:42;;;;;;;14.10;8.90;;;;;;;4.40;78.56;98867.27;105635;1253;60368;-68
2024/01/18 08:11:10;;;;;;;16.00;9.50;;;;;;;4.39;78.51;98866.27;105624;1253;60466;-68
2024/01/18 08:13:37;;;;;;;16.30;10.10;;;;;;;4.40;78.50;98864.09;105813;1251;63706;-67
2024/01/18 08:16:03;;;;;;;20.60;11.60;;;;;;;4.42;78.53;98863.63;105749;1253;60479;-69
2024/01/18 08:18:30;;;;;;;18.50;10.50;;;;;;;4.42;78.50;98865.20;105912;1253;64006;-69
2024/01/18 08:20:58;;;;;;;16.60;9.90;;;;;;;4.42;78.46;98862.92;105924;1257;61583;-69
2024/01/18 08:23:25;;;;;;;17.30;10.20;;;;;;;4.43;78.56;98863.14;105957;1252;60415;-68
2024/01/18 08:25:52;;;;;;;17.50;9.60;;;;;;;4.41;78.59;98861.63;106225;1253;65245;-68
2024/01/18 08:28:19;;;;;;;15.90;9.60;;;;;;;4.40;78.78;98864.44;106008;1255;60341;-68
2024/01/18 08:30:46;;;;;;;19.60;10.30;;;;;;;4.42;78.67;98858.22;105806;1253;64125;-67
2024/01/18 08:33:14;;;;;;;18.40;11.30;;;;;;;4.38;78.82;98846.80;105833;1253;60863;-67
2024/01/18 08:35:41;;;;;;;18.60;10.70;;;;;;;4.45;78.57;98843.54;105917;1256;60429;-70
2024/01/18 08:38:08;;;;;;;20.00;10.20;;;;;;;4.45;78.64;98843.66;105940;1253;67132;-67
2024/01/18 08:40:35;;;;;;;15.80;10.70;;;;;;;4.47;78.69;98839.32;105709;1253;60481;-68
2024/01/18 08:43:03;;;;;;;19.20;10.60;;;;;;;4.47;78.65;98843.20;105755;1251;65676;-69
2024/01/18 08:45:30;;;;;;;18.30;10.70;;;;;;;4.46;78.60;98842.59;105924;1253;61208;-70
2024/01/18 08:47:57;;;;;;;18.70;10.30;;;;;;;4.45;78.64;98837.40;105692;1253;61340;-69
2024/01/18 08:50:24;;;;;;;20.30;11.30;;;;;;;4.46;78.61;98826.83;105782;1258;66033;-68
2024/01/18 08:52:51;;;;;;;19.10;11.30;;;;;;;4.46;78.57;98819.39;105899;1256;61340;-69
2024/01/18 08:55:19;;;;;;;22.00;10.80;;;;;;;4.48;78.59;98818.52;105608;1259;63713;-69
2024/01/18 08:57:46;;;;;;;17.40;10.70;;;;;;;4.49;78.66;98808.85;105769;1252;61328;-68
2024/01/18 09:00:17;;;;;;;19.10;10.20;;;;;;;4.50;78.66;98804.75;105804;1254;61250;-69
2024/01/18 09:02:44;;;;;;;17.60;11.00;;;;;;;4.51;78.66;98800.50;105724;1254;65544;-69
2024/01/18 09:05:12;;;;;;;19.30;11.10;;;;;;;4.50;78.70;98798.31;105595;1262;61247;-70
2024/01/18 09:07:40;;;;;;;20.60;10.70;;;;;;;4.49;78.73;98799.27;105795;1254;65771;-69
2024/01/18 09:10:08;;;;;;;18.70;11.50;;;;;;;4.50;78.85;98791.71;105612;1252;61407;-68
2024/01/18 09:12:36;;;;;;;18.70;11.00;;;;;;;4.51;78.84;98781.51;105494;1253;61224;-69
2024/01/18 09:15:04;;;;;;;21.10;11.30;;;;;;;4.51;78.79;98775.92;105506;1260;65864;-69
2024/01/18 09:17:31;;;;;;;20.10;11.20;;;;;;;4.50;78.77;98776.48;105665;1253;68506;-68
2024/01/18 09:19:59;;;;;;;19.90;11.80;;;;;;;4.50;78.88;98774.59;105836;1259;73034;-69
2024/01/18 09:22:26;;;;;;;22.40;13.00;;;;;;;4.51;78.85;98768.02;105678;1254;61252;-67
2024/01/18 09:24:53;;;;;;;22.00;11.80;;;;;;;4.52;78.80;98766.27;105781;1252;61289;-69
2024/01/18 09:27:24;;;;;;;21.10;12.10;;;;;;;4.53;79.02;98765.32;105644;1257;67570;-68
2024/01/18 09:29:51;;;;;;;22.40;12.10;;;;;;;4.54;78.98;98761.21;105684;1256;61248;-69
2024/01/18 09:32:18;;;;;;;21.90;12.10;;;;;;;4.54;78.96;98755.80;105685;1253;65666;-68
2024/01/18 09:34:45;;;;;;;24.50;12.20;;;;;;;4.54;78.89;98753.02;105593;1253;61172;-67
2024/01/18 09:37:12;;;;;;;18.90;11.30;;;;;;;4.54;78.94;98751.65;105703;1253;61337;-68
2024/01/18 09:39:40;;;;;;;23.20;10.90;;;;;;;4.53;78.98;98753.22;105662;1256;67769;-69
2024/01/18 09:42:12;;;;;;;23.40;12.40;;;;;;;4.54;79.08;98743.75;105846;1254;61318;-69
2024/01/18 09:44:40;;;;;;;23.50;11.80;;;;;;;4.56;79.11;98742.95;105672;1259;65623;-68
2024/01/18 09:47:07;;;;;;;23.00;11.20;;;;;;;4.57;79.23;98746.65;105798;1254;61315;-68
2024/01/18 09:49:34;;;;;;;20.60;11.40;;;;;;;4.59;79.34;98744.07;105839;1253;61883;-69
2024/01/18 09:52:02;;;;;;;20.80;11.40;;;;;;;4.60;79.34;98746.39;105706;1252;67876;-69
2024/01/18 09:54:30;;;;;;;24.50;12.00;;;;;;;4.62;79.42;98740.73;105708;1258;61240;-69
2024/01/18 09:56:59;;;;;;;23.40;12.50;;;;;;;4.62;79.40;98730.74;105803;1254;65922;-69
2024/01/18 09:59:27;;;;;;;21.20;12.40;;;;;;;4.62;79.33;98728.86;105844;1256;61407;-68
2024/01/18 10:01:56;;;;;;;21.30;11.80;;;;;;;4.61;79.47;98726.80;105682;1253;61331;-68
2024/01/18 10:04:27;;;;;;;25.00;12.30;;;;;;;4.62;79.44;98715.41;105761;1257;67725;-68
2024/01/18 10:06:55;;;;;;;20.90;11.80;;;;;;;4.63;79.37;98713.81;105603;1253;61427;-68
2024/01/18 10:09:22;;;;;;;21.70;11.70;;;;;;;4.62;79.41;98706.36;105777;1254;66045;-69
2024/01/18 10:11:49;;;;;;;26.50;11.60;;;;;;;4.61;79.49;98700.81;105650;1255;61283;-70
2024/01/18 10:14:16;;;;;;;18.80;11.60;;;;;;;4.63;79.64;98700.84;105756;1253;61258;-70
2024/01/18 10:16:43;;;;;;;22.10;12.80;;;;;;;4.63;79.74;98694.57;105604;1258;67921;-69
2024/01/18 10:19:18;;;;;;;21.60;11.50;;;;;;;4.64;79.66;98689.63;105779;1253;61257;-70
2024/01/18 10:21:46;;;;;;;21.10;12.20;;;;;;;4.65;79.74;98690.60;105616;1257;65799;-69
2024/01/18 10:24:14;;;;;;;21.60;11.30;;;;;;;4.66;79.82;98688.92;105621;1256;61277;-69
2024/01/18 10:26:41;;;;;;;22.80;13.00;;;;;;;4.67;80.08;98685.18;105668;1252;61307;-70
2024/01/18 10:29:09;;;;;;;21.40;13.00;;;;;;;4.68;79.93;98674.15;105733;1256;67800;-69
2024/01/18 10:31:41;;;;;;;23.00;13.50;;;;;;;4.68;79.93;98674.18;105706;1254;61313;-69
2024/01/18 10:34:08;;;;;;;25.00;13.90;;;;;;;4.67;79.92;98669.30;105573;1254;65582;-69
2024/01/18 10:36:36;;;;;;;25.90;14.10;;;;;;;4.69;79.85;98660.31;105697;1254;61231;-69
2024/01/18 10:39:19;;;;;;;26.70;14.40;;;;;;;4.69;79.98;98657.84;105565;1259;61186;-69
2024/01/18 10:41:47;;;;;;;22.70;13.00;;;;;;;4.70;79.99;98661.08;105867;1256;67722;-69
2024/01/18 10:44:15;;;;;;;20.20;13.00;;;;;;;4.71;80.16;98658.50;105661;1253;61282;-69
2024/01/18 10:46:42;;;;;;;24.70;13.80;;;;;;;4.75;80.18;98658.70;105545;1257;65692;-69
2024/01/18 10:49:09;;;;;;;22.40;13.40;;;;;;;4.77;80.14;98658.52;105627;1257;61362;-70
2024/01/18 10:51:37;;;;;;;24.90;13.50;;;;;;;4.77;80.17;98653.27;105680;1253;61342;-70
2024/01/18 10:54:06;;;;;;;22.60;12.60;;;;;;;4.78;80.27;98649.73;105578;1259;67852;-70
2024/01/18 10:56:36;;;;;;;26.00;15.30;;;;;;;4.81;80.41;98638.12;105659;1258;61221;-68
2024/01/18 10:59:05;;;;;;;25.60;14.40;;;;;;;4.86;80.42;98636.16;105657;1257;65818;-68
2024/01/18 11:01:33;;;;;;;27.00;14.00;;;;;;;4.88;80.42;98623.07;105573;1256;61199;-69
2024/01/18 11:04:00;;;;;;;28.80;14.40;;;;;;;4.90;80.52;98611.79;105603;1251;61324;-68
2024/01/18 11:06:27;;;;;;;26.80;15.30;;;;;;;4.93;80.57;98601.77;105774;1258;67937;-70
2024/01/18 11:08:54;;;;;;;28.20;16.40;;;;;;;4.98;80.62;98595.42;105671;1256;61280;-69
2024/01/18 11:11:22;;;;;;;27.90;16.70;;;;;;;4.99;80.44;98594.98;105891;1256;65799;-70
2024/01/18 11:13:49;;;;;;;25.60;17.10;;;;;;;5.00;80.48;98590.04;105826;1255;61960;-69
2024/01/18 11:16:16;;;;;;;26.60;16.00;;;;;;;5.00;80.56;98588.38;105747;1253;62675;-68
2024/01/18 11:18:49;;;;;;;27.80;15.80;;;;;;;5.02;80.46;98583.41;105827;1256;67936;-69